createdAt,value
2019-03-30T00:01:16.991Z,92.90
2019-03-30T00:03:22.544Z,93.00
2019-03-30T00:05:28.292Z,92.90
2019-03-30T00:07:33.934Z,92.80
2019-03-30T00:09:39.549Z,92.80
2019-03-30T00:11:45.100Z,92.80
2019-03-30T00:13:50.656Z,92.80
2019-03-30T00:15:56.193Z,92.80
2019-03-30T00:18:01.887Z,92.40
2019-03-30T00:20:07.644Z,92.40
2019-03-30T00:22:13.285Z,91.90
2019-03-30T00:24:18.740Z,92.20
2019-03-30T00:26:24.299Z,91.90
2019-03-30T00:28:29.892Z,91.90
2019-03-30T00:30:36.293Z,92.10
2019-03-30T00:32:41.883Z,92.20
2019-03-30T00:34:47.412Z,92.30
2019-03-30T00:36:52.956Z,92.30
2019-03-30T00:38:58.508Z,92.10
2019-03-30T00:41:04.178Z,91.80
2019-03-30T00:43:09.717Z,91.50
2019-03-30T00:45:15.416Z,91.20
2019-03-30T00:47:21.044Z,91.20
2019-03-30T00:49:26.574Z,91.20
2019-03-30T00:51:32.120Z,91.30
2019-03-30T00:53:37.671Z,91.80
2019-03-30T00:55:43.194Z,92.10
2019-03-30T00:57:48.724Z,92.20
2019-03-30T00:59:54.244Z,92.20
2019-03-30T01:01:59.772Z,92.50
2019-03-30T01:04:05.453Z,92.50
2019-03-30T01:06:11.120Z,92.90
2019-03-30T01:08:16.642Z,92.90
2019-03-30T01:10:22.265Z,93.10
2019-03-30T01:12:27.802Z,93.10
2019-03-30T01:14:33.471Z,93.10
2019-03-30T01:16:39.083Z,93.10
2019-03-30T01:18:44.611Z,93.10
2019-03-30T01:20:50.144Z,93.30
2019-03-30T01:22:55.744Z,93.40
2019-03-30T01:25:01.270Z,93.60
2019-03-30T01:27:07.044Z,93.60
2019-03-30T01:29:13.707Z,93.30
2019-03-30T01:31:19.246Z,92.90
2019-03-30T01:33:24.849Z,92.70
2019-03-30T01:35:30.381Z,92.70
2019-03-30T01:37:35.980Z,92.90
2019-03-30T01:39:41.596Z,93.10
2019-03-30T01:41:47.830Z,92.90
2019-03-30T01:43:54.452Z,93.10
2019-03-30T01:46:00.317Z,93.10
2019-03-30T01:48:05.924Z,93.10
2019-03-30T01:50:17.550Z,93.20
2019-03-30T01:52:19.148Z,93.10
2019-03-30T01:54:24.708Z,93.30
2019-03-30T01:56:30.240Z,93.30
2019-03-30T01:58:36.047Z,93.20
2019-03-30T02:00:41.743Z,93.20
2019-03-30T02:02:47.275Z,93.20
2019-03-30T02:04:52.803Z,93.40
2019-03-30T02:06:58.341Z,93.00
2019-03-30T02:09:04.762Z,92.80
2019-03-30T02:11:10.372Z,93.00
2019-03-30T02:13:15.989Z,93.10
2019-03-30T02:15:21.521Z,93.00
2019-03-30T02:17:27.053Z,92.90
2019-03-30T02:19:32.655Z,92.90
2019-03-30T02:21:38.262Z,93.00
2019-03-30T02:23:43.796Z,93.10
2019-03-30T02:25:49.328Z,93.20
2019-03-30T02:27:54.874Z,93.60
2019-03-30T02:30:00.542Z,94.30
2019-03-30T02:32:06.037Z,94.60
2019-03-30T02:34:11.639Z,94.40
2019-03-30T02:36:17.235Z,93.80
2019-03-30T02:38:22.746Z,93.80
2019-03-30T02:40:28.309Z,93.70
2019-03-30T02:42:33.891Z,93.70
2019-03-30T02:44:39.428Z,93.70
2019-03-30T02:46:44.986Z,93.70
2019-03-30T02:48:50.507Z,94.00
2019-03-30T02:50:56.029Z,94.10
2019-03-30T02:53:01.586Z,94.20
2019-03-30T02:55:12.008Z,94.20
2019-03-30T02:57:14.600Z,94.00
2019-03-30T02:59:20.139Z,93.90
2019-03-30T03:01:25.729Z,93.80
2019-03-30T03:03:31.273Z,93.90
2019-03-30T03:05:36.903Z,93.90
2019-03-30T03:07:42.497Z,94.50
2019-03-30T03:09:48.033Z,95.20
2019-03-30T03:11:53.576Z,95.50
2019-03-30T03:13:59.088Z,95.90
2019-03-30T03:16:04.613Z,95.90
2019-03-30T03:18:10.155Z,95.90
2019-03-30T03:20:16.300Z,95.80
2019-03-30T03:22:21.832Z,95.60
2019-03-30T03:24:27.361Z,95.70
2019-03-30T03:26:32.903Z,95.90
2019-03-30T03:28:38.427Z,96.00
2019-03-30T03:30:43.991Z,96.20
2019-03-30T03:32:49.522Z,96.20
2019-03-30T03:34:55.085Z,95.60
2019-03-30T03:37:00.601Z,95.40
2019-03-30T03:39:06.273Z,95.20
2019-03-30T03:41:11.802Z,95.10
2019-03-30T03:43:17.319Z,95.20
2019-03-30T03:45:22.773Z,94.50
2019-03-30T03:47:28.302Z,94.40
2019-03-30T03:49:33.841Z,95.00
2019-03-30T03:51:40.772Z,94.70
2019-03-30T03:53:46.673Z,95.00
2019-03-30T03:55:53.345Z,94.50
2019-03-30T03:58:00.104Z,94.00
2019-03-30T04:00:07.977Z,94.00
2019-03-30T04:02:16.857Z,94.00
2019-03-30T04:04:24.816Z,93.80
2019-03-30T04:06:32.564Z,93.70
2019-03-30T04:08:40.621Z,93.50
2019-03-30T04:10:47.896Z,93.40
2019-03-30T04:12:55.280Z,93.20
2019-03-30T04:15:02.827Z,93.10
2019-03-30T04:17:08.425Z,92.80
2019-03-30T04:19:14.040Z,92.70
2019-03-30T04:21:19.569Z,92.60
2019-03-30T04:23:25.109Z,92.60
2019-03-30T04:25:30.644Z,92.60
2019-03-30T04:27:36.181Z,93.00
2019-03-30T04:29:41.707Z,93.50
2019-03-30T04:31:47.253Z,93.40
2019-03-30T04:33:52.772Z,93.30
2019-03-30T04:35:58.318Z,92.90
2019-03-30T04:38:03.866Z,92.60
2019-03-30T04:40:09.530Z,92.40
2019-03-30T04:42:15.060Z,92.50
2019-03-30T04:44:20.600Z,92.30
2019-03-30T04:46:26.141Z,92.50
2019-03-30T04:48:31.677Z,92.70
2019-03-30T04:50:37.252Z,92.70
2019-03-30T04:52:42.763Z,92.60
2019-03-30T04:54:48.300Z,92.80
2019-03-30T04:56:53.850Z,92.80
2019-03-30T04:58:59.377Z,93.00
2019-03-30T05:01:05.013Z,93.00
2019-03-30T05:03:10.539Z,93.10
2019-03-30T05:05:16.220Z,93.10
2019-03-30T05:07:21.746Z,93.10
2019-03-30T05:09:28.346Z,93.30
2019-03-30T05:11:33.872Z,93.30
2019-03-30T05:13:39.433Z,93.20
2019-03-30T05:15:45.027Z,93.20
2019-03-30T05:17:50.560Z,93.10
2019-03-30T05:19:56.100Z,93.00
2019-03-30T05:22:12.646Z,92.90
2019-03-30T05:24:08.792Z,92.80
2019-03-30T05:26:14.344Z,92.70
2019-03-30T05:28:19.867Z,92.80
2019-03-30T05:30:25.395Z,92.90
2019-03-30T05:32:30.936Z,93.00
2019-03-30T05:34:36.459Z,93.00
2019-03-30T05:36:41.979Z,93.20
2019-03-30T05:38:47.536Z,93.20
2019-03-30T05:40:53.069Z,93.20
2019-03-30T05:42:58.764Z,93.00
2019-03-30T05:45:07.698Z,93.40
2019-03-30T05:47:13.237Z,92.70
2019-03-30T05:49:18.765Z,93.00
2019-03-30T05:51:24.350Z,93.20
2019-03-30T05:53:32.523Z,93.40
2019-03-30T05:55:38.071Z,93.60
2019-03-30T05:57:43.877Z,93.50
2019-03-30T05:59:49.368Z,93.50
2019-03-30T06:01:54.906Z,93.20
2019-03-30T06:04:00.432Z,92.80
2019-03-30T06:06:05.968Z,91.80
2019-03-30T06:08:11.500Z,90.80
2019-03-30T06:10:17.049Z,90.10
2019-03-30T06:12:22.585Z,89.40
2019-03-30T06:14:28.127Z,86.90
2019-03-30T06:16:33.720Z,85.70
2019-03-30T06:18:39.344Z,83.80
2019-03-30T06:20:44.881Z,82.80
2019-03-30T06:22:50.418Z,82.10
2019-03-30T06:24:55.980Z,82.00
2019-03-30T06:27:01.511Z,80.70
2019-03-30T06:29:07.032Z,80.10
2019-03-30T06:31:12.580Z,79.90
2019-03-30T06:33:18.097Z,78.80
2019-03-30T06:35:23.762Z,76.90
2019-03-30T06:37:29.375Z,75.80
2019-03-30T06:39:37.048Z,74.30
2019-03-30T06:41:42.057Z,74.80
2019-03-30T06:43:47.612Z,73.60
2019-03-30T06:45:53.150Z,73.80
2019-03-30T06:47:58.678Z,71.30
2019-03-30T06:50:07.159Z,70.50
2019-03-30T06:52:12.693Z,68.80
2019-03-30T06:54:18.293Z,67.70
2019-03-30T06:56:23.834Z,66.80
2019-03-30T06:58:30.729Z,67.30
2019-03-30T07:00:36.433Z,66.80
2019-03-30T07:02:43.423Z,66.80
2019-03-30T07:04:49.125Z,65.70
2019-03-30T07:06:54.822Z,65.10
2019-03-30T07:09:04.337Z,64.30
2019-03-30T07:11:21.136Z,64.80
2019-03-30T07:13:17.811Z,63.80
2019-03-30T07:15:25.192Z,63.20
2019-03-30T07:17:31.274Z,62.20
2019-03-30T07:19:39.637Z,62.10
2019-03-30T07:21:45.197Z,61.60
2019-03-30T07:23:50.716Z,60.40
2019-03-30T07:25:56.264Z,59.60
2019-03-30T07:28:01.865Z,59.70
2019-03-30T07:30:08.512Z,58.00
2019-03-30T07:32:14.044Z,56.50
2019-03-30T07:34:19.612Z,57.40
2019-03-30T07:36:25.156Z,55.30
2019-03-30T07:38:30.700Z,56.00
2019-03-30T07:40:36.275Z,56.00
2019-03-30T07:42:41.800Z,55.80
2019-03-30T07:44:47.335Z,56.20
2019-03-30T07:46:52.900Z,56.00
2019-03-30T07:48:58.447Z,54.20
2019-03-30T07:51:03.990Z,55.20
2019-03-30T07:53:09.544Z,56.20
2019-03-30T07:55:15.175Z,58.70
2019-03-30T07:57:20.700Z,55.10
2019-03-30T07:59:26.259Z,53.50
2019-03-30T08:01:31.782Z,52.40
2019-03-30T08:03:37.328Z,51.20
2019-03-30T08:05:42.948Z,51.40
2019-03-30T08:07:48.490Z,51.90
2019-03-30T08:09:54.040Z,52.20
2019-03-30T08:11:59.837Z,52.10
2019-03-30T08:14:05.508Z,53.00
2019-03-30T08:16:12.087Z,49.90
2019-03-30T08:18:17.616Z,49.50
2019-03-30T08:20:23.150Z,51.70
2019-03-30T08:22:28.692Z,51.40
2019-03-30T08:24:34.212Z,51.90
2019-03-30T08:26:39.752Z,49.70
2019-03-30T08:28:45.287Z,49.20
2019-03-30T08:30:50.817Z,47.30
2019-03-30T08:32:56.408Z,50.40
2019-03-30T08:35:02.016Z,52.50
2019-03-30T08:37:07.559Z,54.00
2019-03-30T08:39:13.074Z,52.20
2019-03-30T08:41:18.632Z,50.20
2019-03-30T08:43:24.155Z,53.60
2019-03-30T08:45:29.709Z,51.70
2019-03-30T08:47:36.308Z,54.60
2019-03-30T08:49:41.924Z,53.00
2019-03-30T08:51:47.451Z,50.30
2019-03-30T08:53:54.683Z,50.80
2019-03-30T08:56:01.212Z,50.70
2019-03-30T08:58:06.775Z,52.40
2019-03-30T09:00:13.208Z,52.20
2019-03-30T09:02:18.808Z,54.80
2019-03-30T09:04:24.368Z,56.80
2019-03-30T09:06:29.876Z,55.20
2019-03-30T09:08:35.400Z,56.10
2019-03-30T09:10:41.101Z,55.50
2019-03-30T09:12:46.697Z,52.90
2019-03-30T09:14:52.303Z,51.00
2019-03-30T09:16:57.837Z,50.60
2019-03-30T09:19:03.429Z,50.00
2019-03-30T09:21:08.953Z,50.40
2019-03-30T09:23:14.472Z,52.10
2019-03-30T09:25:20.007Z,49.60
2019-03-30T09:27:25.604Z,50.40
2019-03-30T09:29:31.203Z,49.30
2019-03-30T09:31:36.740Z,48.30
2019-03-30T09:33:42.287Z,49.60
2019-03-30T09:35:48.561Z,49.60
2019-03-30T09:37:54.085Z,49.80
2019-03-30T09:39:59.676Z,49.40
2019-03-30T09:42:05.218Z,48.40
2019-03-30T09:44:10.809Z,48.60
2019-03-30T09:46:17.402Z,48.70
2019-03-30T09:48:24.030Z,50.20
2019-03-30T09:50:29.547Z,52.20
2019-03-30T09:52:36.151Z,52.90
2019-03-30T09:54:41.744Z,53.10
2019-03-30T09:56:47.268Z,55.00
2019-03-30T09:58:52.860Z,54.50
2019-03-30T10:00:58.873Z,52.40
2019-03-30T10:03:06.245Z,52.70
2019-03-30T10:05:12.185Z,51.40
2019-03-30T10:07:17.792Z,50.50
2019-03-30T10:09:23.313Z,50.40
2019-03-30T10:11:28.928Z,51.70
2019-03-30T10:13:34.471Z,49.60
2019-03-30T10:15:39.989Z,49.90
2019-03-30T10:17:45.522Z,51.00
2019-03-30T10:20:03.673Z,52.70
2019-03-30T10:21:58.187Z,50.70
2019-03-30T10:24:04.951Z,51.20
2019-03-30T10:26:10.477Z,52.50
2019-03-30T10:28:16.016Z,50.30
2019-03-30T10:30:21.619Z,50.00
2019-03-30T10:32:27.141Z,50.20
2019-03-30T10:34:32.664Z,50.40
2019-03-30T10:36:38.220Z,49.60
2019-03-30T10:38:43.753Z,48.20
2019-03-30T10:40:49.271Z,45.30
2019-03-30T10:42:54.893Z,44.80
2019-03-30T10:45:00.416Z,45.40
2019-03-30T10:47:07.212Z,45.80
2019-03-30T10:49:12.752Z,46.60
2019-03-30T10:51:18.268Z,46.90
2019-03-30T10:53:23.800Z,46.00
2019-03-30T10:55:29.399Z,44.80
2019-03-30T10:57:34.943Z,45.50
2019-03-30T10:59:40.472Z,45.00
2019-03-30T11:01:46.038Z,44.00
2019-03-30T11:03:51.569Z,44.00
2019-03-30T11:05:57.092Z,41.10
2019-03-30T11:08:02.698Z,48.70
2019-03-30T11:10:08.659Z,43.30
2019-03-30T11:12:14.189Z,42.80
2019-03-30T11:14:19.720Z,44.00
2019-03-30T11:16:25.237Z,46.30
2019-03-30T11:18:30.832Z,42.40
2019-03-30T11:20:36.400Z,43.80
2019-03-30T11:22:41.940Z,43.00
2019-03-30T11:24:47.477Z,45.20
2019-03-30T11:26:53.020Z,44.10
2019-03-30T11:28:58.590Z,42.20
2019-03-30T11:31:05.580Z,40.70
2019-03-30T11:33:12.382Z,42.80
2019-03-30T11:35:17.988Z,43.50
2019-03-30T11:37:23.528Z,43.50
2019-03-30T11:39:29.068Z,42.80
2019-03-30T11:41:34.600Z,42.80
2019-03-30T11:43:40.200Z,43.20
2019-03-30T11:45:45.732Z,40.60
2019-03-30T11:47:51.343Z,42.20
2019-03-30T11:49:56.946Z,41.30
2019-03-30T11:52:02.541Z,41.90
2019-03-30T11:54:08.100Z,42.80
2019-03-30T11:56:13.681Z,41.60
2019-03-30T11:58:19.214Z,42.40
2019-03-30T12:00:24.771Z,41.80
2019-03-30T12:02:30.312Z,39.50
2019-03-30T12:04:35.915Z,39.40
2019-03-30T12:06:41.467Z,40.10
2019-03-30T12:08:46.985Z,41.30
2019-03-30T12:10:52.511Z,40.90
2019-03-30T12:12:59.124Z,41.10
2019-03-30T12:15:08.785Z,42.20
2019-03-30T12:17:14.329Z,42.20
2019-03-30T12:19:19.880Z,45.00
2019-03-30T12:21:25.414Z,41.80
2019-03-30T12:23:30.955Z,44.50
2019-03-30T12:25:36.506Z,44.10
2019-03-30T12:27:42.030Z,47.40
2019-03-30T12:29:49.626Z,44.40
2019-03-30T12:31:55.154Z,46.50
2019-03-30T12:34:00.677Z,42.70
2019-03-30T12:36:06.270Z,41.40
2019-03-30T12:38:11.860Z,45.50
2019-03-30T12:40:17.540Z,43.10
2019-03-30T12:42:23.078Z,41.90
2019-03-30T12:44:28.704Z,41.10
2019-03-30T12:46:34.400Z,41.20
2019-03-30T12:48:40.994Z,42.00
2019-03-30T12:50:46.668Z,40.20
2019-03-30T12:52:52.270Z,41.00
2019-03-30T12:54:57.782Z,42.40
2019-03-30T12:57:03.320Z,40.20
2019-03-30T12:59:08.919Z,42.10
2019-03-30T13:01:15.668Z,39.40
2019-03-30T13:03:22.401Z,39.00
2019-03-30T13:05:27.936Z,38.00
2019-03-30T13:07:33.474Z,37.10
2019-03-30T13:09:39.090Z,37.10
2019-03-30T13:11:44.602Z,38.20
2019-03-30T13:13:50.142Z,41.60
2019-03-30T13:15:55.678Z,42.50
2019-03-30T13:18:01.196Z,43.20
2019-03-30T13:20:09.043Z,39.70
2019-03-30T13:22:14.571Z,38.40
2019-03-30T13:24:20.100Z,36.40
2019-03-30T13:26:25.640Z,36.60
2019-03-30T13:28:31.204Z,36.90
2019-03-30T13:30:36.882Z,36.50
2019-03-30T13:32:42.437Z,37.60
2019-03-30T13:34:48.024Z,37.40
2019-03-30T13:36:53.539Z,37.60
2019-03-30T13:38:59.071Z,36.90
2019-03-30T13:41:04.692Z,37.20
2019-03-30T13:43:10.278Z,36.30
2019-03-30T13:45:15.880Z,37.10
2019-03-30T13:47:21.438Z,35.50
2019-03-30T13:49:29.501Z,36.00
2019-03-30T13:51:34.097Z,37.20
2019-03-30T13:53:39.705Z,37.80
2019-03-30T13:55:45.229Z,37.50
2019-03-30T13:57:50.763Z,35.10
2019-03-30T13:59:56.305Z,35.40
2019-03-30T14:02:02.981Z,33.80
2019-03-30T14:04:08.504Z,34.80
2019-03-30T14:06:14.084Z,34.20
2019-03-30T14:08:19.561Z,36.20
2019-03-30T14:10:25.159Z,34.80
2019-03-30T14:12:30.712Z,35.10
2019-03-30T14:14:36.245Z,34.90
2019-03-30T14:16:41.752Z,31.80
2019-03-30T14:18:47.293Z,32.20
2019-03-30T14:20:52.881Z,33.00
2019-03-30T14:22:58.394Z,29.10
2019-03-30T14:25:05.468Z,28.50
2019-03-30T14:27:10.981Z,26.90
2019-03-30T14:29:19.864Z,27.10
2019-03-30T14:31:25.456Z,27.90
2019-03-30T14:33:30.972Z,29.00
2019-03-30T14:35:36.504Z,30.00
2019-03-30T14:37:42.021Z,30.60
2019-03-30T14:39:47.535Z,30.20
2019-03-30T14:41:53.055Z,29.40
2019-03-30T14:43:58.585Z,30.90
2019-03-30T14:46:04.185Z,31.80
2019-03-30T14:48:09.700Z,31.40
2019-03-30T14:50:15.515Z,32.70
2019-03-30T14:52:21.054Z,32.90
2019-03-30T14:54:26.578Z,30.20
2019-03-30T14:56:44.792Z,31.50
2019-03-30T14:58:39.346Z,29.90
2019-03-30T15:00:44.797Z,29.20
2019-03-30T15:02:50.341Z,30.70
2019-03-30T15:04:55.871Z,31.00
2019-03-30T15:07:01.427Z,29.50
2019-03-30T15:09:07.504Z,28.90
2019-03-30T15:11:13.136Z,29.20
2019-03-30T15:13:31.004Z,29.50
2019-03-30T15:15:36.554Z,29.10
2019-03-30T15:17:42.158Z,29.70
2019-03-30T15:19:47.760Z,30.70
2019-03-30T15:21:53.293Z,31.80
2019-03-30T15:23:58.901Z,31.50
2019-03-30T15:26:04.436Z,31.40
2019-03-30T15:28:10.059Z,30.60
2019-03-30T15:30:17.035Z,30.00
2019-03-30T15:32:22.546Z,29.50
2019-03-30T15:34:28.100Z,29.20
2019-03-30T15:36:33.624Z,28.50
2019-03-30T15:38:39.134Z,28.40
2019-03-30T15:40:44.663Z,28.80
2019-03-30T15:42:50.197Z,28.50
2019-03-30T15:44:55.727Z,29.10
2019-03-30T15:47:01.259Z,28.60
2019-03-30T15:49:09.559Z,28.10
2019-03-30T15:51:14.005Z,29.90
2019-03-30T15:53:19.570Z,29.70
2019-03-30T15:55:25.087Z,29.40
2019-03-30T15:57:30.687Z,30.00
2019-03-30T15:59:36.205Z,31.00
2019-03-30T16:01:41.807Z,30.10
2019-03-30T16:03:47.332Z,31.90
2019-03-30T16:05:52.863Z,32.90
2019-03-30T16:07:58.452Z,33.10
2019-03-30T16:10:04.736Z,31.50
2019-03-30T16:12:10.304Z,30.90
2019-03-30T16:14:15.827Z,32.30
2019-03-30T16:16:21.364Z,31.20
2019-03-30T16:18:26.894Z,30.70
2019-03-30T16:20:32.430Z,30.60
2019-03-30T16:22:37.961Z,30.40
2019-03-30T16:24:43.580Z,31.90
2019-03-30T16:26:49.098Z,30.90
2019-03-30T16:28:54.632Z,31.30
2019-03-30T16:31:00.256Z,31.30
2019-03-30T16:33:05.862Z,30.90
2019-03-30T16:35:11.627Z,31.00
2019-03-30T16:37:17.170Z,30.20
2019-03-30T16:39:22.700Z,30.00
2019-03-30T16:41:28.306Z,30.30
2019-03-30T16:43:33.870Z,31.80
2019-03-30T16:45:39.453Z,31.20
2019-03-30T16:47:45.108Z,30.80
2019-03-30T16:49:50.652Z,31.00
2019-03-30T16:51:56.186Z,31.60
2019-03-30T16:54:01.713Z,32.40
2019-03-30T16:56:07.245Z,32.50
2019-03-30T16:58:12.790Z,33.30
2019-03-30T17:00:18.924Z,35.00
2019-03-30T17:02:24.545Z,36.40
2019-03-30T17:04:30.065Z,37.70
2019-03-30T17:06:35.589Z,35.70
2019-03-30T17:08:41.145Z,36.30
2019-03-30T17:10:46.664Z,35.10
2019-03-30T17:12:52.201Z,34.70
2019-03-30T17:14:57.728Z,37.00
2019-03-30T17:17:03.248Z,36.60
2019-03-30T17:19:08.837Z,39.50
2019-03-30T17:21:14.387Z,37.90
2019-03-30T17:23:19.921Z,36.60
2019-03-30T17:25:25.524Z,36.60
2019-03-30T17:27:31.154Z,37.00
2019-03-30T17:29:36.681Z,37.70
2019-03-30T17:31:42.272Z,37.70
2019-03-30T17:33:47.836Z,38.20
2019-03-30T17:35:53.370Z,38.00
2019-03-30T17:37:58.976Z,38.20
2019-03-30T17:40:10.346Z,38.10
2019-03-30T17:42:15.879Z,39.20
2019-03-30T17:44:21.404Z,39.80
2019-03-30T17:46:26.979Z,41.80
2019-03-30T17:48:32.504Z,40.70
2019-03-30T17:50:38.051Z,41.50
2019-03-30T17:52:44.607Z,39.90
2019-03-30T17:54:50.237Z,39.80
2019-03-30T17:56:55.790Z,39.10
2019-03-30T17:59:01.409Z,39.60
2019-03-30T18:01:07.064Z,40.40
2019-03-30T18:03:12.596Z,39.40
2019-03-30T18:05:18.156Z,41.10
2019-03-30T18:07:23.682Z,42.60
2019-03-30T18:09:29.226Z,44.50
2019-03-30T18:11:34.783Z,45.70
2019-03-30T18:13:40.320Z,46.80
2019-03-30T18:15:45.869Z,45.70
2019-03-30T18:17:51.423Z,48.60
2019-03-30T18:19:56.999Z,47.80
2019-03-30T18:22:02.578Z,44.30
2019-03-30T18:24:08.137Z,44.50
2019-03-30T18:26:13.678Z,44.40
2019-03-30T18:28:27.061Z,43.80
2019-03-30T18:30:37.900Z,44.70
2019-03-30T18:32:44.075Z,44.50
2019-03-30T18:34:50.794Z,45.00
2019-03-30T18:36:57.087Z,43.70
2019-03-30T18:39:09.240Z,44.30
2019-03-30T18:41:11.580Z,44.70
2019-03-30T18:43:17.202Z,45.00
2019-03-30T18:45:25.582Z,45.40
2019-03-30T18:47:31.196Z,46.00
2019-03-30T18:49:36.744Z,44.80
2019-03-30T18:51:44.496Z,44.10
2019-03-30T18:53:50.188Z,44.00
2019-03-30T18:55:55.760Z,44.10
2019-03-30T18:58:01.307Z,43.50
2019-03-30T19:00:07.874Z,43.40
2019-03-30T19:02:15.204Z,44.20
2019-03-30T19:04:20.786Z,43.50
2019-03-30T19:06:26.410Z,45.70
2019-03-30T19:08:34.568Z,45.80
2019-03-30T19:10:39.686Z,46.30
2019-03-30T19:12:45.312Z,46.50
2019-03-30T19:14:50.857Z,44.50
2019-03-30T19:16:57.525Z,45.60
2019-03-30T19:19:03.209Z,46.70
2019-03-30T19:21:08.779Z,45.40
2019-03-30T19:23:15.386Z,44.50
2019-03-30T19:25:21.059Z,44.70
2019-03-30T19:27:26.636Z,46.10
2019-03-30T19:29:32.209Z,46.70
2019-03-30T19:31:37.747Z,46.90
2019-03-30T19:33:43.280Z,46.50
2019-03-30T19:35:48.835Z,45.90
2019-03-30T19:37:54.379Z,46.90
2019-03-30T19:39:59.926Z,45.30
2019-03-30T19:42:05.532Z,45.90
2019-03-30T19:44:11.079Z,45.90
2019-03-30T19:46:17.689Z,45.40
2019-03-30T19:48:23.278Z,46.20
2019-03-30T19:50:28.760Z,46.60
2019-03-30T19:52:40.300Z,46.20
2019-03-30T19:54:41.471Z,46.10
2019-03-30T19:56:47.009Z,46.10
2019-03-30T19:58:52.562Z,46.30
2019-03-30T20:00:58.163Z,46.30
2019-03-30T20:03:03.777Z,47.10
2019-03-30T20:05:09.860Z,47.00
2019-03-30T20:07:15.530Z,46.90
2019-03-30T20:09:21.350Z,47.90
2019-03-30T20:11:26.945Z,47.70
2019-03-30T20:13:32.568Z,48.10
2019-03-30T20:15:38.177Z,48.30
2019-03-30T20:17:43.712Z,48.10
2019-03-30T20:19:49.246Z,48.20
2019-03-30T20:21:57.273Z,48.20
2019-03-30T20:24:02.022Z,48.10
2019-03-30T20:26:07.640Z,48.20
2019-03-30T20:28:13.184Z,49.50
2019-03-30T20:30:19.159Z,48.70
2019-03-30T20:32:24.820Z,49.20
2019-03-30T20:34:30.380Z,49.40
2019-03-30T20:36:35.921Z,49.80
2019-03-30T20:38:41.470Z,50.00
2019-03-30T20:40:47.014Z,49.40
2019-03-30T20:42:52.610Z,49.80
2019-03-30T20:44:58.155Z,49.70
2019-03-30T20:47:03.697Z,49.90
2019-03-30T20:49:10.376Z,49.80
2019-03-30T20:51:15.906Z,49.80
2019-03-30T20:53:21.493Z,50.00
2019-03-30T20:55:27.040Z,50.20
2019-03-30T20:57:32.564Z,50.20
2019-03-30T20:59:40.115Z,50.50
2019-03-30T21:01:45.394Z,50.80
2019-03-30T21:03:50.932Z,51.00
2019-03-30T21:05:56.539Z,51.20
2019-03-30T21:08:02.029Z,51.50
2019-03-30T21:10:09.695Z,51.50
2019-03-30T21:12:15.391Z,52.20
2019-03-30T21:14:20.923Z,52.40
2019-03-30T21:16:26.532Z,52.80
2019-03-30T21:18:32.099Z,53.20
2019-03-30T21:20:37.673Z,53.30
2019-03-30T21:22:43.208Z,53.50
2019-03-30T21:24:48.827Z,53.70
2019-03-30T21:26:54.369Z,54.10
2019-03-30T21:28:59.970Z,54.70
2019-03-30T21:31:05.587Z,54.70
2019-03-30T21:33:11.112Z,55.40
2019-03-30T21:35:16.800Z,55.20
2019-03-30T21:37:22.379Z,54.60
2019-03-30T21:39:28.980Z,54.40
2019-03-30T21:41:34.516Z,54.30
2019-03-30T21:43:40.050Z,54.50
2019-03-30T21:45:45.651Z,54.40
2019-03-30T21:47:51.260Z,54.40
2019-03-30T21:49:56.786Z,54.70
2019-03-30T21:52:02.326Z,55.70
2019-03-30T21:54:07.924Z,56.10
2019-03-30T21:56:13.505Z,56.10
2019-03-30T21:58:19.049Z,56.30
2019-03-30T22:00:36.195Z,55.90
2019-03-30T22:02:41.813Z,55.90
2019-03-30T22:04:47.355Z,55.50
2019-03-30T22:06:52.890Z,55.70
2019-03-30T22:08:59.004Z,56.20
2019-03-30T22:11:04.627Z,55.70
2019-03-30T22:13:10.233Z,55.60
2019-03-30T22:15:18.848Z,55.70
2019-03-30T22:17:24.432Z,55.70
2019-03-30T22:19:30.037Z,56.10
2019-03-30T22:21:35.583Z,55.90
2019-03-30T22:23:41.128Z,55.70
2019-03-30T22:25:46.663Z,55.70
2019-03-30T22:27:52.221Z,56.00
2019-03-30T22:29:57.756Z,56.10
2019-03-30T22:32:03.285Z,56.30
2019-03-30T22:34:08.822Z,56.50
2019-03-30T22:36:14.376Z,56.90
2019-03-30T22:38:19.912Z,57.00
2019-03-30T22:40:25.436Z,57.30
2019-03-30T22:42:31.001Z,57.70
2019-03-30T22:44:36.554Z,57.80
2019-03-30T22:46:42.102Z,58.10
2019-03-30T22:48:47.628Z,58.30
2019-03-30T22:50:53.164Z,58.90
2019-03-30T22:52:58.718Z,59.60
2019-03-30T22:55:06.819Z,59.70
2019-03-30T22:57:12.297Z,59.80
2019-03-30T22:59:17.827Z,60.00
2019-03-30T23:01:24.408Z,60.20
2019-03-30T23:03:29.992Z,60.20
2019-03-30T23:05:35.524Z,60.60
2019-03-30T23:07:42.144Z,60.80
2019-03-30T23:09:47.694Z,61.10
2019-03-30T23:11:53.247Z,61.20
2019-03-30T23:13:58.778Z,61.10
2019-03-30T23:16:04.459Z,61.10
2019-03-30T23:18:10.016Z,61.30
2019-03-30T23:20:15.624Z,61.50
2019-03-30T23:22:21.156Z,61.70
2019-03-30T23:24:26.768Z,62.00
2019-03-30T23:26:32.308Z,62.00
2019-03-30T23:28:40.562Z,62.30
2019-03-30T23:30:54.287Z,62.30
2019-03-30T23:32:53.352Z,62.70
2019-03-30T23:34:58.936Z,62.70
2019-03-30T23:37:04.616Z,62.80
2019-03-30T23:39:11.277Z,62.70
2019-03-30T23:41:16.909Z,62.80
2019-03-30T23:43:22.463Z,63.20
2019-03-30T23:45:27.977Z,63.40
2019-03-30T23:47:33.499Z,62.90
2019-03-30T23:49:39.036Z,63.60
2019-03-30T23:51:44.556Z,63.30
2019-03-30T23:53:50.084Z,63.30
2019-03-30T23:55:55.628Z,63.30
2019-03-30T23:58:01.156Z,63.40
